РПИ Самарканд

Руководитель РПИ

Evgeny Vygornitsky*

Инструкторы РПИ
Evgeny Vygornitsky (Supervisor)
Vitaliy Alekseyev (Instructor)
Входит в состав
ЗЦ Центральная Азия

Диспетчеры РПИ

Диспетчер Рейтинг Допуски *

Аэропорты РПИ

ICAO Город Название Погода
UTSB Бухара Бухара UTSB 161800Z 01008KT 9999 SCT010 OVC044CB 05/05 Q1014 R01/290550 NOSIG
UTSS Самарканд Самарканд UTSS 161800Z 22004KT 170V260 6000 BKN056CB 10/07 Q1012 R09/19//60 NOSIG
UTST Термез Термез UTST 161800Z 36010KT 330V030 9999 BKN066CB 14/04 Q1012 R25/CLRD70 NOSIG
UTSL Карши Карши-Ханабад
UTSA Навои Навои UTSA 161800Z 04008KT 6000 -SHRA OVC040CB 06/05 Q1013 R07/29//60 NOSIG